RYR49YD EPMO-LIPE
Flight info
| Callsign | RYR49YD |
|---|---|
| Flight time | 1h 48m |
| Altitude | 38000 |
| Route | EVINA N744 TUSIN DCT MIKOV DCT GRZ DCT RADLY DCT RIFEN/N0442F370 DCT BADOP/N0338F190 P125 BAMEK |
| Aircraft | B738/M-SDE3FGILRWY/SB1 |
Departure
| Time | 2026-04-21 14:53 |
|---|---|
| Airport | Warsaw Modlin Airport (EPMO) |
Arrival
| Time | 2026-04-21 16:41 |
|---|---|
| Airport | Bologna Guglielmo Marconi Airport (LIPE) |
| Time | Latitude | Longitude | Altitude | Speed | Heading |
|---|---|---|---|---|---|
| 2026-04-21 14:37 | 52.44736 | 20.65178 | 334 ft | 0 kts | 206° |
| 2026-04-21 14:43 | 52.44748 | 20.65188 | 337 ft | 4 kts | 208° |
| 2026-04-21 14:43 | 52.44771 | 20.65210 | 333 ft | 4 kts | 219° |
| 2026-04-21 14:44 | 52.44788 | 20.65242 | 332 ft | 4 kts | 250° |
| 2026-04-21 14:44 | 52.44791 | 20.65256 | 332 ft | 0 kts | 261° |
| 2026-04-21 14:46 | 52.44791 | 20.65253 | 332 ft | 1 kts | 261° |
| 2026-04-21 14:47 | 52.44788 | 20.65219 | 335 ft | 5 kts | 261° |
| 2026-04-21 14:47 | 52.44781 | 20.65153 | 335 ft | 6 kts | 261° |
| 2026-04-21 14:47 | 52.44774 | 20.65074 | 336 ft | 8 kts | 261° |
| 2026-04-21 14:47 | 52.44765 | 20.64983 | 335 ft | 9 kts | 261° |
| 2026-04-21 14:48 | 52.44755 | 20.64878 | 337 ft | 10 kts | 261° |
| 2026-04-21 14:48 | 52.44744 | 20.64761 | 336 ft | 11 kts | 261° |
| 2026-04-21 14:48 | 52.44732 | 20.64631 | 336 ft | 12 kts | 261° |
| 2026-04-21 14:48 | 52.44718 | 20.64489 | 335 ft | 13 kts | 261° |
| 2026-04-21 14:49 | 52.44703 | 20.64335 | 333 ft | 14 kts | 261° |
| 2026-04-21 14:49 | 52.44688 | 20.64171 | 334 ft | 15 kts | 261° |
| 2026-04-21 14:49 | 52.44671 | 20.63998 | 337 ft | 15 kts | 261° |
| 2026-04-21 14:49 | 52.44656 | 20.63829 | 337 ft | 15 kts | 261° |
| 2026-04-21 14:50 | 52.44641 | 20.63666 | 337 ft | 14 kts | 261° |
| 2026-04-21 14:50 | 52.44627 | 20.63513 | 337 ft | 10 kts | 266° |
| 2026-04-21 14:50 | 52.44670 | 20.63447 | 335 ft | 9 kts | 350° |
| 2026-04-21 14:50 | 52.44732 | 20.63431 | 335 ft | 9 kts | 351° |
| 2026-04-21 14:51 | 52.44792 | 20.63417 | 333 ft | 9 kts | 351° |
| 2026-04-21 14:51 | 52.44850 | 20.63402 | 334 ft | 8 kts | 351° |
| 2026-04-21 14:51 | 52.44907 | 20.63395 | 335 ft | 8 kts | 359° |
| 2026-04-21 14:51 | 52.44955 | 20.63414 | 337 ft | 6 kts | 54° |
| 2026-04-21 14:52 | 52.44960 | 20.63443 | 336 ft | 0 kts | 81° |
| 2026-04-21 14:52 | 52.44970 | 20.63550 | 335 ft | 38 kts | 81° |
| 2026-04-21 14:52 | 52.45048 | 20.64388 | 338 ft | 109 kts | 81° |
| 2026-04-21 14:52 | 52.45199 | 20.65926 | 358 ft | 164 kts | 77° |
| 2026-04-21 14:53 | 52.45385 | 20.67781 | 1139 ft | 158 kts | 75° |
| 2026-04-21 14:53 | 52.45578 | 20.69617 | 1835 ft | 171 kts | 75° |
| 2026-04-21 14:53 | 52.45807 | 20.71716 | 2172 ft | 201 kts | 76° |
| 2026-04-21 14:53 | 52.46065 | 20.74080 | 2639 ft | 216 kts | 76° |
| 2026-04-21 14:54 | 52.46591 | 20.76363 | 3269 ft | 216 kts | 49° |
| 2026-04-21 14:54 | 52.47784 | 20.77811 | 3820 ft | 219 kts | 18° |
| 2026-04-21 14:54 | 52.49310 | 20.78138 | 4418 ft | 227 kts | 356° |
| 2026-04-21 14:54 | 52.50947 | 20.77766 | 4819 ft | 246 kts | 352° |
| 2026-04-21 14:55 | 52.52667 | 20.77303 | 5643 ft | 251 kts | 352° |
| 2026-04-21 14:55 | 52.54397 | 20.76847 | 6606 ft | 253 kts | 352° |
| 2026-04-21 14:55 | 52.56147 | 20.76398 | 7463 ft | 256 kts | 353° |
| 2026-04-21 14:55 | 52.57932 | 20.75947 | 8265 ft | 262 kts | 353° |
| 2026-04-21 14:56 | 52.59762 | 20.75800 | 9070 ft | 265 kts | 13° |
| 2026-04-21 14:56 | 52.61427 | 20.77009 | 9960 ft | 264 kts | 39° |
| 2026-04-21 14:56 | 52.62627 | 20.79312 | 10629 ft | 274 kts | 61° |
| 2026-04-21 14:56 | 52.63169 | 20.82417 | 11095 ft | 292 kts | 82° |
| 2026-04-21 14:57 | 52.63309 | 20.85785 | 11833 ft | 297 kts | 84° |
| 2026-04-21 14:57 | 52.63424 | 20.89192 | 12701 ft | 299 kts | 84° |
| 2026-04-21 14:57 | 52.63548 | 20.92621 | 13540 ft | 301 kts | 84° |
| 2026-04-21 14:57 | 52.63653 | 20.96082 | 14297 ft | 305 kts | 89° |
| 2026-04-21 14:58 | 52.63150 | 20.99516 | 15003 ft | 317 kts | 112° |
| 2026-04-21 14:58 | 52.61852 | 21.02563 | 15380 ft | 341 kts | 133° |
| 2026-04-21 14:58 | 52.59883 | 21.04937 | 15813 ft | 358 kts | 142° |
| 2026-04-21 14:58 | 52.57769 | 21.07170 | 16441 ft | 363 kts | 143° |
| 2026-04-21 14:59 | 52.55624 | 21.09401 | 17149 ft | 367 kts | 143° |
| 2026-04-21 14:59 | 52.53462 | 21.11660 | 17844 ft | 370 kts | 143° |
| 2026-04-21 14:59 | 52.51313 | 21.13928 | 18500 ft | 374 kts | 142° |
| 2026-04-21 14:59 | 52.49087 | 21.16295 | 19087 ft | 378 kts | 142° |
| 2026-04-21 15:00 | 52.46906 | 21.18619 | 19693 ft | 380 kts | 142° |
| 2026-04-21 15:00 | 52.44684 | 21.20987 | 20299 ft | 383 kts | 142° |
| 2026-04-21 15:00 | 52.42323 | 21.23081 | 20849 ft | 394 kts | 158° |
| 2026-04-21 15:00 | 52.39571 | 21.23704 | 21413 ft | 408 kts | 180° |
| 2026-04-21 15:01 | 52.36789 | 21.22625 | 21983 ft | 419 kts | 203° |
| 2026-04-21 15:01 | 52.34376 | 21.19928 | 22515 ft | 426 kts | 225° |
| 2026-04-21 15:01 | 52.32491 | 21.16177 | 23081 ft | 429 kts | 232° |
| 2026-04-21 15:01 | 52.30686 | 21.12259 | 23589 ft | 433 kts | 233° |
| 2026-04-21 15:02 | 52.28849 | 21.08340 | 24015 ft | 437 kts | 232° |
| 2026-04-21 15:02 | 52.26962 | 21.04426 | 24461 ft | 439 kts | 231° |
| 2026-04-21 15:02 | 52.24984 | 21.00610 | 24918 ft | 441 kts | 225° |
| 2026-04-21 15:02 | 52.22761 | 20.97149 | 25372 ft | 443 kts | 220° |
| 2026-04-21 15:03 | 52.20423 | 20.93846 | 25801 ft | 445 kts | 219° |
| 2026-04-21 15:03 | 52.18053 | 20.90572 | 26216 ft | 448 kts | 219° |
| 2026-04-21 15:03 | 52.15680 | 20.87259 | 26618 ft | 451 kts | 220° |
| 2026-04-21 15:03 | 52.13309 | 20.83891 | 27019 ft | 454 kts | 220° |
| 2026-04-21 15:04 | 52.10940 | 20.80478 | 27446 ft | 456 kts | 221° |
| 2026-04-21 15:04 | 52.08572 | 20.77042 | 27847 ft | 458 kts | 221° |
| 2026-04-21 15:04 | 52.06188 | 20.73574 | 28229 ft | 461 kts | 221° |
| 2026-04-21 15:04 | 52.03787 | 20.70087 | 28600 ft | 463 kts | 221° |
| 2026-04-21 15:05 | 52.01377 | 20.66592 | 28975 ft | 466 kts | 221° |
| 2026-04-21 15:05 | 51.96503 | 20.59555 | 29673 ft | 471 kts | 220° |
| 2026-04-21 15:05 | 51.93847 | 20.56452 | 29964 ft | 472 kts | 204° |
| 2026-04-21 15:06 | 51.90788 | 20.54578 | 30309 ft | 470 kts | 196° |
| 2026-04-21 15:06 | 51.87679 | 20.52887 | 30591 ft | 472 kts | 196° |
| 2026-04-21 15:06 | 51.84565 | 20.51157 | 30854 ft | 475 kts | 197° |
| 2026-04-21 15:06 | 51.81442 | 20.49379 | 31155 ft | 476 kts | 197° |
| 2026-04-21 15:07 | 51.78322 | 20.47571 | 31553 ft | 476 kts | 197° |
| 2026-04-21 15:07 | 51.75255 | 20.45780 | 31958 ft | 474 kts | 198° |
| 2026-04-21 15:07 | 51.72155 | 20.43970 | 32364 ft | 472 kts | 198° |
| 2026-04-21 15:07 | 51.69063 | 20.42173 | 32693 ft | 472 kts | 198° |
| 2026-04-21 15:08 | 51.65972 | 20.40395 | 33006 ft | 472 kts | 196° |
| 2026-04-21 15:08 | 51.62790 | 20.39252 | 33307 ft | 468 kts | 184° |
| 2026-04-21 15:08 | 51.59558 | 20.38805 | 33681 ft | 465 kts | 181° |
| 2026-04-21 15:08 | 51.56331 | 20.38464 | 34020 ft | 464 kts | 181° |
| 2026-04-21 15:09 | 51.53107 | 20.38098 | 34271 ft | 465 kts | 182° |
| 2026-04-21 15:09 | 51.49879 | 20.37671 | 34510 ft | 465 kts | 182° |
| 2026-04-21 15:09 | 51.46656 | 20.37195 | 34769 ft | 465 kts | 183° |
| 2026-04-21 15:09 | 51.43439 | 20.36705 | 35085 ft | 464 kts | 184° |
| 2026-04-21 15:10 | 51.40244 | 20.36082 | 35420 ft | 463 kts | 192° |
| 2026-04-21 15:10 | 51.37233 | 20.34233 | 35579 ft | 467 kts | 211° |
| 2026-04-21 15:10 | 51.34584 | 20.31226 | 35791 ft | 467 kts | 217° |
| 2026-04-21 15:10 | 51.32017 | 20.28041 | 36043 ft | 467 kts | 218° |
| 2026-04-21 15:11 | 51.29462 | 20.24854 | 36276 ft | 466 kts | 218° |
| 2026-04-21 15:11 | 51.26927 | 20.21727 | 36508 ft | 466 kts | 217° |
| 2026-04-21 15:11 | 51.24352 | 20.18593 | 36758 ft | 466 kts | 217° |
| 2026-04-21 15:11 | 51.21769 | 20.15482 | 37010 ft | 465 kts | 217° |
| 2026-04-21 15:12 | 51.19185 | 20.12388 | 37268 ft | 464 kts | 217° |
| 2026-04-21 15:12 | 51.16601 | 20.09302 | 37523 ft | 464 kts | 217° |
| 2026-04-21 15:12 | 51.14017 | 20.06216 | 37705 ft | 464 kts | 217° |
| 2026-04-21 15:12 | 51.11433 | 20.03134 | 37881 ft | 464 kts | 217° |
| 2026-04-21 15:13 | 51.08850 | 20.00059 | 38090 ft | 464 kts | 217° |
| 2026-04-21 15:13 | 51.06257 | 19.96979 | 38111 ft | 467 kts | 217° |
| 2026-04-21 15:13 | 51.01055 | 19.90813 | 38119 ft | 465 kts | 217° |
| 2026-04-21 15:14 | 50.95902 | 19.84727 | 38118 ft | 459 kts | 217° |
| 2026-04-21 15:14 | 50.90798 | 19.78714 | 38118 ft | 455 kts | 217° |
| 2026-04-21 15:15 | 50.85743 | 19.72772 | 38137 ft | 458 kts | 217° |
| 2026-04-21 15:15 | 50.80586 | 19.66724 | 38144 ft | 465 kts | 217° |
| 2026-04-21 15:16 | 50.75358 | 19.60612 | 38141 ft | 469 kts | 217° |
| 2026-04-21 15:16 | 50.70091 | 19.54472 | 38138 ft | 472 kts | 217° |
| 2026-04-21 15:17 | 50.64848 | 19.48380 | 38117 ft | 463 kts | 217° |
| 2026-04-21 15:17 | 50.59690 | 19.42403 | 38124 ft | 459 kts | 217° |
| 2026-04-21 15:18 | 50.54547 | 19.36457 | 38125 ft | 458 kts | 217° |
| 2026-04-21 15:18 | 50.49413 | 19.30538 | 38134 ft | 458 kts | 217° |
| 2026-04-21 15:19 | 50.44272 | 19.24628 | 38131 ft | 458 kts | 217° |
| 2026-04-21 15:19 | 50.39124 | 19.18726 | 38138 ft | 459 kts | 217° |
| 2026-04-21 15:20 | 50.33961 | 19.12823 | 38132 ft | 460 kts | 217° |
| 2026-04-21 15:20 | 50.28790 | 19.06927 | 38136 ft | 461 kts | 217° |
| 2026-04-21 15:21 | 50.23587 | 19.01012 | 38133 ft | 462 kts | 217° |
| 2026-04-21 15:21 | 50.18377 | 18.95105 | 38135 ft | 463 kts | 218° |
| 2026-04-21 15:22 | 50.13159 | 18.89205 | 38130 ft | 463 kts | 217° |
| 2026-04-21 15:22 | 50.07938 | 18.83317 | 38131 ft | 463 kts | 217° |
| 2026-04-21 15:23 | 50.02717 | 18.77445 | 38120 ft | 463 kts | 218° |
| 2026-04-21 15:23 | 49.97499 | 18.71592 | 38125 ft | 462 kts | 217° |
| 2026-04-21 15:24 | 49.92296 | 18.65772 | 38123 ft | 461 kts | 218° |
| 2026-04-21 15:24 | 49.87101 | 18.59975 | 38127 ft | 459 kts | 217° |
| 2026-04-21 15:25 | 49.82452 | 18.53335 | 38127 ft | 453 kts | 233° |
| 2026-04-21 15:25 | 49.78517 | 18.45738 | 38130 ft | 452 kts | 234° |
| 2026-04-21 15:26 | 49.74593 | 18.38161 | 38129 ft | 451 kts | 233° |
| 2026-04-21 15:26 | 49.70642 | 18.30636 | 38117 ft | 451 kts | 233° |
| 2026-04-21 15:27 | 49.66676 | 18.23149 | 38133 ft | 450 kts | 233° |
| 2026-04-21 15:27 | 49.62700 | 18.15675 | 38135 ft | 451 kts | 233° |
| 2026-04-21 15:28 | 49.58711 | 18.08196 | 38133 ft | 452 kts | 233° |
| 2026-04-21 15:28 | 49.54711 | 18.00717 | 38133 ft | 453 kts | 232° |
| 2026-04-21 15:29 | 49.50696 | 17.93231 | 38123 ft | 454 kts | 232° |
| 2026-04-21 15:29 | 49.46668 | 17.85740 | 38135 ft | 455 kts | 233° |
| 2026-04-21 15:30 | 49.43313 | 17.79518 | 38111 ft | 455 kts | 232° |
| 2026-04-21 15:30 | 49.39268 | 17.72036 | 38128 ft | 455 kts | 233° |
| 2026-04-21 15:31 | 49.35216 | 17.64563 | 38108 ft | 455 kts | 233° |
| 2026-04-21 15:31 | 49.31167 | 17.57115 | 38110 ft | 454 kts | 232° |
| 2026-04-21 15:32 | 49.27120 | 17.49694 | 38119 ft | 453 kts | 232° |
| 2026-04-21 15:32 | 49.23087 | 17.42317 | 38112 ft | 451 kts | 232° |
| 2026-04-21 15:33 | 49.19059 | 17.34972 | 38102 ft | 449 kts | 232° |
| 2026-04-21 15:33 | 49.15043 | 17.27667 | 38094 ft | 448 kts | 232° |
| 2026-04-21 15:34 | 49.11036 | 17.20399 | 38102 ft | 446 kts | 232° |
| 2026-04-21 15:34 | 49.07011 | 17.13118 | 38110 ft | 445 kts | 232° |
| 2026-04-21 15:35 | 49.03016 | 17.05910 | 38114 ft | 445 kts | 232° |
| 2026-04-21 15:35 | 48.99020 | 16.98720 | 38116 ft | 445 kts | 232° |
| 2026-04-21 15:36 | 48.95018 | 16.91541 | 38115 ft | 445 kts | 232° |
| 2026-04-21 15:36 | 48.91039 | 16.84420 | 38117 ft | 445 kts | 232° |
| 2026-04-21 15:37 | 48.87027 | 16.77259 | 38120 ft | 445 kts | 232° |
| 2026-04-21 15:37 | 48.83007 | 16.70100 | 38120 ft | 446 kts | 232° |
| 2026-04-21 15:38 | 48.78747 | 16.63253 | 38115 ft | 450 kts | 221° |
| 2026-04-21 15:38 | 48.73316 | 16.58438 | 38131 ft | 456 kts | 206° |
| 2026-04-21 15:39 | 48.67467 | 16.54649 | 38125 ft | 457 kts | 206° |
| 2026-04-21 15:39 | 48.61605 | 16.50873 | 38115 ft | 458 kts | 206° |
| 2026-04-21 15:40 | 48.55745 | 16.47043 | 38102 ft | 458 kts | 206° |
| 2026-04-21 15:40 | 48.49923 | 16.43215 | 38120 ft | 458 kts | 206° |
| 2026-04-21 15:41 | 48.44069 | 16.39366 | 38111 ft | 459 kts | 206° |
| 2026-04-21 15:41 | 48.38207 | 16.35524 | 38117 ft | 459 kts | 206° |
| 2026-04-21 15:42 | 48.32357 | 16.31700 | 38115 ft | 458 kts | 207° |
| 2026-04-21 15:42 | 48.26512 | 16.27890 | 38129 ft | 457 kts | 207° |
| 2026-04-21 15:43 | 48.20682 | 16.24100 | 38120 ft | 457 kts | 206° |
| 2026-04-21 15:43 | 48.14880 | 16.20337 | 38112 ft | 456 kts | 207° |
| 2026-04-21 15:44 | 48.09050 | 16.16564 | 38130 ft | 455 kts | 207° |
| 2026-04-21 15:44 | 48.03236 | 16.12813 | 38125 ft | 454 kts | 207° |
| 2026-04-21 15:45 | 47.97433 | 16.09076 | 38125 ft | 454 kts | 207° |
| 2026-04-21 15:45 | 47.91677 | 16.05380 | 38122 ft | 453 kts | 207° |
| 2026-04-21 15:46 | 47.85878 | 16.01664 | 38131 ft | 452 kts | 207° |
| 2026-04-21 15:46 | 47.80094 | 15.97968 | 38135 ft | 452 kts | 207° |
| 2026-04-21 15:47 | 47.74317 | 15.94284 | 38128 ft | 452 kts | 207° |
| 2026-04-21 15:47 | 47.68522 | 15.90598 | 38123 ft | 452 kts | 207° |
| 2026-04-21 15:48 | 47.62775 | 15.86952 | 38119 ft | 452 kts | 207° |
| 2026-04-21 15:48 | 47.56986 | 15.83288 | 38132 ft | 452 kts | 207° |
| 2026-04-21 15:49 | 47.51196 | 15.79631 | 38112 ft | 453 kts | 207° |
| 2026-04-21 15:49 | 47.45394 | 15.75977 | 38106 ft | 453 kts | 207° |
| 2026-04-21 15:50 | 47.39595 | 15.72332 | 38109 ft | 453 kts | 207° |
| 2026-04-21 15:50 | 47.33784 | 15.68689 | 38089 ft | 454 kts | 207° |
| 2026-04-21 15:51 | 47.27972 | 15.65055 | 38094 ft | 454 kts | 207° |
| 2026-04-21 15:51 | 47.22163 | 15.61430 | 38084 ft | 453 kts | 207° |
| 2026-04-21 15:52 | 47.16356 | 15.57816 | 38090 ft | 453 kts | 207° |
| 2026-04-21 15:52 | 47.10554 | 15.54213 | 38075 ft | 453 kts | 207° |
| 2026-04-21 15:53 | 47.04751 | 15.50617 | 38079 ft | 453 kts | 207° |
| 2026-04-21 15:53 | 46.98939 | 15.47023 | 38070 ft | 453 kts | 207° |
| 2026-04-21 15:54 | 46.93217 | 15.43239 | 38080 ft | 449 kts | 212° |
| 2026-04-21 15:54 | 46.87725 | 15.38904 | 38076 ft | 448 kts | 213° |
| 2026-04-21 15:55 | 46.82238 | 15.34543 | 38078 ft | 448 kts | 213° |
| 2026-04-21 15:55 | 46.76740 | 15.30245 | 38070 ft | 449 kts | 212° |
| 2026-04-21 15:56 | 46.71265 | 15.25991 | 38079 ft | 448 kts | 212° |
| 2026-04-21 15:56 | 46.65900 | 15.21384 | 38077 ft | 442 kts | 223° |
| 2026-04-21 15:57 | 46.61737 | 15.14992 | 38072 ft | 432 kts | 239° |
| 2026-04-21 15:57 | 46.58356 | 15.07854 | 38053 ft | 431 kts | 239° |
| 2026-04-21 15:58 | 46.54961 | 15.00664 | 38055 ft | 431 kts | 239° |
| 2026-04-21 15:58 | 46.51538 | 14.93505 | 38062 ft | 432 kts | 239° |
| 2026-04-21 15:59 | 46.48091 | 14.86357 | 38065 ft | 433 kts | 239° |
| 2026-04-21 15:59 | 46.44629 | 14.79207 | 38062 ft | 433 kts | 239° |
| 2026-04-21 16:00 | 46.41162 | 14.72066 | 38042 ft | 433 kts | 239° |
| 2026-04-21 16:00 | 46.37684 | 14.64921 | 38022 ft | 434 kts | 239° |
| 2026-04-21 16:01 | 46.34229 | 14.57839 | 38035 ft | 434 kts | 239° |
| 2026-04-21 16:01 | 46.30737 | 14.50703 | 38024 ft | 433 kts | 239° |
| 2026-04-21 16:02 | 46.27261 | 14.43611 | 38007 ft | 432 kts | 239° |
| 2026-04-21 16:02 | 46.23793 | 14.36557 | 38021 ft | 429 kts | 239° |
| 2026-04-21 16:03 | 46.20341 | 14.29551 | 38027 ft | 427 kts | 239° |
| 2026-04-21 16:03 | 46.16903 | 14.22592 | 38011 ft | 425 kts | 239° |
| 2026-04-21 16:04 | 46.13493 | 14.15704 | 38023 ft | 424 kts | 239° |
| 2026-04-21 16:04 | 46.10066 | 14.08800 | 38027 ft | 423 kts | 239° |
| 2026-04-21 16:05 | 46.06644 | 14.01925 | 38014 ft | 421 kts | 239° |
| 2026-04-21 16:05 | 46.03231 | 13.95082 | 38020 ft | 420 kts | 239° |
| 2026-04-21 16:06 | 45.99829 | 13.88279 | 38018 ft | 419 kts | 239° |
| 2026-04-21 16:06 | 45.96422 | 13.81479 | 38009 ft | 419 kts | 239° |
| 2026-04-21 16:07 | 45.93003 | 13.74672 | 38002 ft | 420 kts | 239° |
| 2026-04-21 16:07 | 45.89596 | 13.67905 | 37996 ft | 421 kts | 239° |
| 2026-04-21 16:08 | 45.84361 | 13.57717 | 37616 ft | 429 kts | 234° |
| 2026-04-21 16:08 | 45.82357 | 13.54576 | 37282 ft | 424 kts | 232° |
| 2026-04-21 16:09 | 45.80320 | 13.51534 | 36863 ft | 421 kts | 232° |
| 2026-04-21 16:09 | 45.78292 | 13.48538 | 36495 ft | 416 kts | 232° |
| 2026-04-21 16:09 | 45.76286 | 13.45567 | 36091 ft | 411 kts | 233° |
| 2026-04-21 16:09 | 45.74316 | 13.42628 | 35757 ft | 406 kts | 234° |
| 2026-04-21 16:10 | 45.72373 | 13.39711 | 35363 ft | 402 kts | 234° |
| 2026-04-21 16:10 | 45.70479 | 13.36858 | 35009 ft | 398 kts | 235° |
| 2026-04-21 16:10 | 45.68586 | 13.34001 | 34632 ft | 394 kts | 235° |
| 2026-04-21 16:10 | 45.66711 | 13.31173 | 34275 ft | 390 kts | 236° |
| 2026-04-21 16:11 | 45.64854 | 13.28373 | 33908 ft | 386 kts | 236° |
| 2026-04-21 16:11 | 45.63016 | 13.25605 | 33488 ft | 382 kts | 236° |
| 2026-04-21 16:11 | 45.61196 | 13.22869 | 33131 ft | 377 kts | 236° |
| 2026-04-21 16:11 | 45.59399 | 13.20169 | 32724 ft | 372 kts | 237° |
| 2026-04-21 16:12 | 45.58227 | 13.18409 | 32549 ft | 368 kts | 237° |
| 2026-04-21 16:12 | 45.55880 | 13.14890 | 32093 ft | 362 kts | 237° |
| 2026-04-21 16:12 | 45.54153 | 13.12299 | 31739 ft | 358 kts | 237° |
| 2026-04-21 16:12 | 45.52462 | 13.09764 | 31396 ft | 355 kts | 237° |
| 2026-04-21 16:13 | 45.50762 | 13.07218 | 31044 ft | 352 kts | 237° |
| 2026-04-21 16:13 | 45.49076 | 13.04700 | 30715 ft | 349 kts | 237° |
| 2026-04-21 16:13 | 45.47403 | 13.02205 | 30376 ft | 346 kts | 238° |
| 2026-04-21 16:13 | 45.45637 | 12.99842 | 30061 ft | 352 kts | 230° |
| 2026-04-21 16:14 | 45.43608 | 12.97825 | 29794 ft | 354 kts | 226° |
| 2026-04-21 16:14 | 45.41570 | 12.95910 | 29443 ft | 349 kts | 225° |
| 2026-04-21 16:14 | 45.40234 | 12.94652 | 29255 ft | 347 kts | 226° |
| 2026-04-21 16:14 | 45.38220 | 12.92733 | 28987 ft | 350 kts | 226° |
| 2026-04-21 16:15 | 45.36187 | 12.90783 | 28721 ft | 354 kts | 225° |
| 2026-04-21 16:15 | 45.34142 | 12.88823 | 28446 ft | 354 kts | 225° |
| 2026-04-21 16:15 | 45.32247 | 12.86698 | 28157 ft | 339 kts | 235° |
| 2026-04-21 16:15 | 45.30689 | 12.84255 | 27882 ft | 328 kts | 242° |
| 2026-04-21 16:16 | 45.29456 | 12.81599 | 27610 ft | 319 kts | 249° |
| 2026-04-21 16:16 | 45.28439 | 12.78832 | 27340 ft | 312 kts | 255° |
| 2026-04-21 16:16 | 45.27741 | 12.75955 | 27080 ft | 305 kts | 261° |
| 2026-04-21 16:16 | 45.27148 | 12.73086 | 26810 ft | 300 kts | 261° |
| 2026-04-21 16:17 | 45.26575 | 12.70287 | 26494 ft | 298 kts | 261° |
| 2026-04-21 16:17 | 45.25998 | 12.67476 | 26142 ft | 295 kts | 260° |
| 2026-04-21 16:17 | 45.25426 | 12.64701 | 25854 ft | 291 kts | 260° |
| 2026-04-21 16:17 | 45.24857 | 12.61952 | 25539 ft | 289 kts | 260° |
| 2026-04-21 16:18 | 45.24290 | 12.59228 | 25237 ft | 287 kts | 260° |
| 2026-04-21 16:18 | 45.23724 | 12.56515 | 24930 ft | 285 kts | 260° |
| 2026-04-21 16:18 | 45.23161 | 12.53824 | 24626 ft | 283 kts | 260° |
| 2026-04-21 16:18 | 45.22602 | 12.51154 | 24325 ft | 282 kts | 260° |
| 2026-04-21 16:19 | 45.22044 | 12.48497 | 24024 ft | 281 kts | 260° |
| 2026-04-21 16:19 | 45.21486 | 12.45839 | 23729 ft | 281 kts | 260° |
| 2026-04-21 16:19 | 45.20926 | 12.43179 | 23396 ft | 282 kts | 259° |
| 2026-04-21 16:19 | 45.20359 | 12.40481 | 23051 ft | 290 kts | 259° |
| 2026-04-21 16:20 | 45.19775 | 12.37702 | 22719 ft | 297 kts | 259° |
| 2026-04-21 16:20 | 45.19179 | 12.34886 | 22383 ft | 296 kts | 259° |
| 2026-04-21 16:20 | 45.18587 | 12.32104 | 22065 ft | 293 kts | 259° |
| 2026-04-21 16:20 | 45.18001 | 12.29350 | 21747 ft | 290 kts | 259° |
| 2026-04-21 16:21 | 45.17428 | 12.26650 | 21430 ft | 288 kts | 259° |
| 2026-04-21 16:21 | 45.16851 | 12.23943 | 21122 ft | 286 kts | 259° |
| 2026-04-21 16:21 | 45.16280 | 12.21261 | 20813 ft | 284 kts | 258° |
| 2026-04-21 16:21 | 45.15699 | 12.18596 | 20490 ft | 283 kts | 257° |
| 2026-04-21 16:22 | 45.15013 | 12.15946 | 20021 ft | 288 kts | 254° |
| 2026-04-21 16:22 | 45.14280 | 12.13310 | 19665 ft | 288 kts | 253° |
| 2026-04-21 16:22 | 45.13539 | 12.10683 | 19365 ft | 286 kts | 253° |
| 2026-04-21 16:22 | 45.12804 | 12.08072 | 19027 ft | 285 kts | 253° |
| 2026-04-21 16:23 | 45.12073 | 12.05465 | 18744 ft | 283 kts | 253° |
| 2026-04-21 16:23 | 45.11357 | 12.02904 | 18457 ft | 281 kts | 253° |
| 2026-04-21 16:23 | 45.10641 | 12.00336 | 18150 ft | 280 kts | 253° |
| 2026-04-21 16:23 | 45.09928 | 11.97776 | 17817 ft | 278 kts | 253° |
| 2026-04-21 16:24 | 45.09219 | 11.95231 | 17516 ft | 276 kts | 253° |
| 2026-04-21 16:24 | 45.08520 | 11.92721 | 17226 ft | 273 kts | 253° |
| 2026-04-21 16:24 | 45.07824 | 11.90225 | 16940 ft | 272 kts | 253° |
| 2026-04-21 16:24 | 45.07133 | 11.87745 | 16655 ft | 270 kts | 253° |
| 2026-04-21 16:25 | 45.06445 | 11.85281 | 16365 ft | 268 kts | 253° |
| 2026-04-21 16:25 | 45.05761 | 11.82830 | 16080 ft | 267 kts | 253° |
| 2026-04-21 16:25 | 45.05080 | 11.80396 | 15799 ft | 266 kts | 252° |
| 2026-04-21 16:25 | 45.04400 | 11.77965 | 15521 ft | 266 kts | 252° |
| 2026-04-21 16:26 | 45.03715 | 11.75514 | 15242 ft | 269 kts | 252° |
| 2026-04-21 16:26 | 45.03026 | 11.73053 | 14963 ft | 276 kts | 252° |
| 2026-04-21 16:26 | 45.02310 | 11.70494 | 14669 ft | 282 kts | 252° |
| 2026-04-21 16:26 | 45.01581 | 11.67904 | 14359 ft | 283 kts | 252° |
| 2026-04-21 16:27 | 45.00852 | 11.65316 | 14043 ft | 282 kts | 252° |
| 2026-04-21 16:27 | 45.00127 | 11.62746 | 13734 ft | 282 kts | 251° |
| 2026-04-21 16:27 | 44.99396 | 11.60159 | 13327 ft | 283 kts | 251° |
| 2026-04-21 16:27 | 44.98668 | 11.57588 | 13000 ft | 282 kts | 251° |
| 2026-04-21 16:28 | 44.97940 | 11.55023 | 12689 ft | 280 kts | 251° |
| 2026-04-21 16:28 | 44.97217 | 11.52474 | 12395 ft | 279 kts | 251° |
| 2026-04-21 16:28 | 44.96498 | 11.49940 | 12088 ft | 277 kts | 251° |
| 2026-04-21 16:28 | 44.95795 | 11.47470 | 11813 ft | 276 kts | 251° |
| 2026-04-21 16:29 | 44.95083 | 11.44965 | 11527 ft | 274 kts | 251° |
| 2026-04-21 16:29 | 44.94374 | 11.42474 | 11241 ft | 273 kts | 251° |
| 2026-04-21 16:29 | 44.93668 | 11.39990 | 10951 ft | 272 kts | 250° |
| 2026-04-21 16:29 | 44.92964 | 11.37520 | 10669 ft | 271 kts | 250° |
| 2026-04-21 16:30 | 44.92259 | 11.35053 | 10377 ft | 271 kts | 250° |
| 2026-04-21 16:30 | 44.91556 | 11.32597 | 10129 ft | 269 kts | 250° |
| 2026-04-21 16:30 | 44.90787 | 11.30235 | 9986 ft | 264 kts | 237° |
| 2026-04-21 16:30 | 44.89402 | 11.28535 | 9708 ft | 268 kts | 210° |
| 2026-04-21 16:31 | 44.87669 | 11.27593 | 9444 ft | 268 kts | 199° |
| 2026-04-21 16:31 | 44.85877 | 11.26883 | 9164 ft | 267 kts | 197° |
| 2026-04-21 16:31 | 44.84084 | 11.26194 | 8885 ft | 267 kts | 197° |
| 2026-04-21 16:31 | 44.82302 | 11.25487 | 8617 ft | 265 kts | 198° |
| 2026-04-21 16:32 | 44.80660 | 11.24331 | 8038 ft | 268 kts | 227° |
| 2026-04-21 16:32 | 44.79740 | 11.22087 | 7580 ft | 267 kts | 252° |
| 2026-04-21 16:32 | 44.79156 | 11.19611 | 7196 ft | 267 kts | 252° |
| 2026-04-21 16:32 | 44.78550 | 11.17137 | 6800 ft | 267 kts | 251° |
| 2026-04-21 16:33 | 44.77924 | 11.14677 | 6423 ft | 268 kts | 251° |
| 2026-04-21 16:33 | 44.77277 | 11.12215 | 6029 ft | 268 kts | 250° |
| 2026-04-21 16:33 | 44.76623 | 11.09775 | 5713 ft | 265 kts | 249° |
| 2026-04-21 16:33 | 44.75973 | 11.07372 | 5455 ft | 260 kts | 249° |
| 2026-04-21 16:34 | 44.75341 | 11.05045 | 5350 ft | 249 kts | 249° |
| 2026-04-21 16:34 | 44.74703 | 11.02836 | 5230 ft | 239 kts | 239° |
| 2026-04-21 16:34 | 44.73545 | 11.01241 | 5086 ft | 234 kts | 207° |
| 2026-04-21 16:34 | 44.72082 | 11.00197 | 4903 ft | 240 kts | 204° |
| 2026-04-21 16:35 | 44.70576 | 10.99154 | 4778 ft | 247 kts | 204° |
| 2026-04-21 16:35 | 44.69034 | 10.98084 | 4676 ft | 244 kts | 204° |
| 2026-04-21 16:35 | 44.67517 | 10.97134 | 4536 ft | 232 kts | 189° |
| 2026-04-21 16:35 | 44.66015 | 10.97344 | 4441 ft | 214 kts | 150° |
| 2026-04-21 16:36 | 44.64978 | 10.98751 | 4252 ft | 205 kts | 124° |
| 2026-04-21 16:36 | 44.64158 | 11.00374 | 4017 ft | 204 kts | 123° |
| 2026-04-21 16:36 | 44.63356 | 11.02033 | 3795 ft | 201 kts | 121° |
| 2026-04-21 16:36 | 44.62646 | 11.03708 | 3579 ft | 198 kts | 117° |
| 2026-04-21 16:37 | 44.62016 | 11.05376 | 3382 ft | 188 kts | 116° |
| 2026-04-21 16:37 | 44.61437 | 11.06960 | 3180 ft | 175 kts | 116° |
| 2026-04-21 16:37 | 44.60908 | 11.08425 | 2988 ft | 166 kts | 116° |
| 2026-04-21 16:37 | 44.60407 | 11.09814 | 2959 ft | 160 kts | 116° |
| 2026-04-21 16:38 | 44.59893 | 11.11240 | 2743 ft | 163 kts | 116° |
| 2026-04-21 16:38 | 44.59390 | 11.12630 | 2523 ft | 158 kts | 116° |
| 2026-04-21 16:38 | 44.58900 | 11.13988 | 2303 ft | 154 kts | 116° |
| 2026-04-21 16:38 | 44.58415 | 11.15331 | 2105 ft | 153 kts | 116° |
| 2026-04-21 16:39 | 44.57959 | 11.16601 | 1921 ft | 143 kts | 116° |
| 2026-04-21 16:39 | 44.57520 | 11.17816 | 1727 ft | 139 kts | 116° |
| 2026-04-21 16:39 | 44.57077 | 11.19043 | 1537 ft | 142 kts | 116° |
| 2026-04-21 16:39 | 44.56631 | 11.20281 | 1331 ft | 141 kts | 115° |
| 2026-04-21 16:40 | 44.56192 | 11.21503 | 1120 ft | 140 kts | 116° |
| 2026-04-21 16:40 | 44.55756 | 11.22713 | 931 ft | 139 kts | 115° |
| 2026-04-21 16:40 | 44.55320 | 11.23925 | 755 ft | 138 kts | 114° |
| 2026-04-21 16:40 | 44.54882 | 11.25136 | 536 ft | 140 kts | 115° |
| 2026-04-21 16:41 | 44.54588 | 11.25956 | 386 ft | 138 kts | 115° |
| 2026-04-21 16:41 | 44.54021 | 11.27541 | 172 ft | 137 kts | 116° |
| 2026-04-21 16:41 | 44.53621 | 11.28657 | 124 ft | 112 kts | 117° |
| 2026-04-21 16:41 | 44.53346 | 11.29419 | 129 ft | 49 kts | 117° |
| 2026-04-21 16:42 | 44.53270 | 11.29607 | 129 ft | 11 kts | 139° |
| 2026-04-21 16:42 | 44.53203 | 11.29651 | 126 ft | 11 kts | 154° |
| 2026-04-21 16:42 | 44.53140 | 11.29703 | 128 ft | 10 kts | 144° |
| 2026-04-21 16:42 | 44.53083 | 11.29755 | 124 ft | 9 kts | 147° |
| 2026-04-21 16:43 | 44.53034 | 11.29777 | 129 ft | 7 kts | 212° |
| 2026-04-21 16:43 | 44.53041 | 11.29718 | 127 ft | 7 kts | 296° |
| 2026-04-21 16:43 | 44.53062 | 11.29658 | 125 ft | 8 kts | 296° |
| 2026-04-21 16:43 | 44.53091 | 11.29578 | 127 ft | 11 kts | 296° |
| 2026-04-21 16:44 | 44.53129 | 11.29473 | 127 ft | 13 kts | 296° |
| 2026-04-21 16:44 | 44.53170 | 11.29356 | 128 ft | 14 kts | 296° |
| 2026-04-21 16:44 | 44.53212 | 11.29239 | 129 ft | 13 kts | 296° |
| 2026-04-21 16:44 | 44.53253 | 11.29127 | 130 ft | 13 kts | 297° |
| 2026-04-21 16:45 | 44.53292 | 11.29017 | 127 ft | 12 kts | 297° |
| 2026-04-21 16:45 | 44.53331 | 11.28911 | 127 ft | 12 kts | 297° |
| 2026-04-21 16:45 | 44.53358 | 11.28832 | 128 ft | 4 kts | 286° |
| 2026-04-21 16:45 | 44.53341 | 11.28805 | 128 ft | 4 kts | 209° |
| 2026-04-21 16:46 | 44.53310 | 11.28782 | 127 ft | 5 kts | 206° |
| 2026-04-21 16:46 | 44.53282 | 11.28763 | 127 ft | 2 kts | 206° |
| 2026-04-21 16:46 | 44.53273 | 11.28757 | 125 ft | 1 kts | 207° |
| 2026-04-21 16:46 | 44.53272 | 11.28756 | 125 ft | 0 kts | 207° |